createdAt,value
2023-01-01T00:01:32.556Z,1.90
2023-01-01T00:04:01.026Z,2.23
2023-01-01T00:06:28.790Z,2.23
2023-01-01T00:09:10.331Z,2.03
2023-01-01T00:11:38.099Z,2.03
2023-01-01T00:14:12.012Z,2.20
2023-01-01T00:16:40.889Z,2.83
2023-01-01T00:19:08.729Z,1.73
2023-01-01T00:21:36.529Z,3.03
2023-01-01T00:24:04.510Z,2.53
2023-01-01T00:26:35.256Z,2.33
2023-01-01T00:29:04.120Z,2.47
2023-01-01T00:31:32.384Z,1.83
2023-01-01T00:34:00.314Z,2.23
2023-01-01T00:36:29.045Z,2.13
2023-01-01T00:38:57.368Z,2.37
2023-01-01T00:41:25.363Z,2.40
2023-01-01T00:43:53.045Z,1.27
2023-01-01T00:46:20.921Z,1.90
2023-01-01T00:48:48.668Z,1.63
2023-01-01T00:51:16.300Z,1.60
2023-01-01T00:53:43.959Z,2.03
2023-01-01T00:56:11.723Z,1.53
2023-01-01T00:58:39.695Z,1.93
2023-01-01T01:01:07.687Z,2.47
2023-01-01T01:03:35.552Z,2.17
2023-01-01T01:06:03.180Z,1.63
2023-01-01T01:08:34.982Z,1.23
2023-01-01T01:13:34.597Z,1.63
2023-01-01T01:16:02.374Z,1.50
2023-01-01T01:18:30.076Z,2.17
2023-01-01T01:20:57.761Z,1.00
2023-01-01T01:23:25.425Z,1.53
2023-01-01T01:25:53.128Z,1.37
2023-01-01T01:28:20.853Z,1.67
2023-01-01T01:30:48.514Z,1.23
2023-01-01T01:33:17.199Z,1.73
2023-01-01T01:35:52.080Z,2.17
2023-01-01T01:38:20.471Z,1.40
2023-01-01T01:40:48.104Z,1.47
2023-01-01T01:43:26.036Z,2.27
2023-01-01T01:46:07.286Z,1.80
2023-01-01T01:48:40.595Z,1.05
2023-01-01T01:51:08.777Z,1.53
2023-01-01T01:53:40.051Z,1.33
2023-01-01T01:56:11.633Z,1.33
2023-01-01T01:58:39.925Z,1.40
2023-01-01T02:01:07.731Z,1.40
2023-01-01T02:03:44.910Z,1.70
2023-01-01T02:06:13.114Z,1.40
2023-01-01T02:08:40.857Z,0.93
2023-01-01T02:11:08.494Z,1.50
2023-01-01T02:13:39.904Z,1.13
2023-01-01T02:16:18.027Z,1.20
2023-01-01T02:19:03.984Z,1.67
2023-01-01T02:21:35.727Z,1.30
2023-01-01T02:27:09.229Z,2.00
2023-01-01T02:29:47.834Z,0.90
2023-01-01T02:32:25.444Z,1.43
2023-01-01T02:35:23.904Z,0.70
2023-01-01T02:37:54.797Z,1.40
2023-01-01T02:40:24.853Z,1.02
2023-01-01T02:42:55.057Z,0.90
2023-01-01T02:45:23.142Z,1.20
2023-01-01T02:47:51.030Z,0.87
2023-01-01T02:50:29.014Z,1.90
2023-01-01T02:53:08.537Z,0.97
2023-01-01T02:55:46.379Z,1.13
2023-01-01T02:58:59.490Z,1.37
2023-01-01T03:01:35.499Z,1.27
2023-01-01T03:04:20.399Z,0.67
2023-01-01T03:07:03.622Z,1.30
2023-01-01T03:09:57.757Z,0.60
2023-01-01T03:12:39.867Z,1.17
2023-01-01T03:15:16.230Z,1.20
2023-01-01T03:17:55.652Z,1.03
2023-01-01T03:20:27.924Z,1.03
2023-01-01T03:23:03.273Z,1.40
2023-01-01T03:25:35.900Z,0.70
2023-01-01T03:28:15.643Z,1.53
2023-01-01T03:30:46.954Z,1.30
2023-01-01T03:33:22.524Z,1.88
2023-01-01T03:36:02.251Z,1.23
2023-01-01T03:38:41.589Z,1.37
2023-01-01T03:41:16.113Z,1.27
2023-01-01T03:43:55.456Z,1.77
2023-01-01T03:46:29.308Z,0.90
2023-01-01T03:49:03.303Z,1.47
2023-01-01T03:51:50.619Z,1.27
2023-01-01T03:54:43.783Z,1.60
2023-01-01T03:57:24.564Z,1.17
2023-01-01T04:00:08.089Z,1.50
2023-01-01T04:02:49.925Z,1.00
2023-01-01T04:05:19.050Z,1.93
2023-01-01T04:10:21.294Z,1.67
2023-01-01T04:12:52.176Z,1.03
2023-01-01T04:15:22.421Z,1.98
2023-01-01T04:17:51.246Z,1.13
2023-01-01T04:20:19.197Z,1.53
2023-01-01T04:22:47.654Z,1.63
2023-01-01T04:25:15.661Z,1.43
2023-01-01T04:27:43.315Z,1.50
2023-01-01T04:30:13.793Z,1.97
2023-01-01T04:32:42.165Z,1.73
2023-01-01T04:35:12.735Z,2.03
2023-01-01T04:37:45.463Z,1.00
2023-01-01T04:40:14.225Z,1.20
2023-01-01T04:42:43.360Z,1.50
2023-01-01T04:45:12.400Z,1.50
2023-01-01T04:47:40.117Z,1.63
2023-01-01T04:50:08.232Z,0.90
2023-01-01T04:52:35.838Z,1.23
2023-01-01T04:55:03.506Z,1.53
2023-01-01T04:57:32.467Z,1.40
2023-01-01T05:00:00.181Z,1.03
2023-01-01T05:02:28.183Z,1.77
2023-01-01T05:04:55.902Z,1.43
2023-01-01T05:07:23.547Z,0.87
2023-01-01T05:09:51.268Z,2.30
2023-01-01T05:12:18.976Z,1.50
2023-01-01T05:14:46.630Z,1.77
2023-01-01T05:17:14.883Z,1.53
2023-01-01T05:19:42.593Z,1.90
2023-01-01T05:22:11.162Z,1.30
2023-01-01T05:24:39.218Z,1.33
2023-01-01T05:27:06.934Z,1.10
2023-01-01T05:29:34.587Z,1.90
2023-01-01T05:32:02.250Z,1.33
2023-01-01T05:36:59.185Z,2.03
2023-01-01T05:39:26.880Z,1.90
2023-01-01T05:41:54.508Z,1.73
2023-01-01T05:44:22.166Z,1.67
2023-01-01T05:46:50.279Z,1.63
2023-01-01T05:49:18.017Z,1.60
2023-01-01T05:51:45.655Z,1.87
2023-01-01T05:56:40.028Z,1.17
2023-01-01T05:59:07.692Z,1.30
2023-01-01T06:01:41.832Z,1.23
2023-01-01T06:04:13.093Z,1.40
2023-01-01T06:06:40.749Z,1.97
2023-01-01T06:09:08.466Z,1.80
2023-01-01T06:11:36.103Z,2.10
2023-01-01T06:14:03.898Z,2.97
2023-01-01T06:16:32.581Z,2.43
2023-01-01T06:19:00.378Z,3.47
2023-01-01T06:21:29.737Z,2.90
2023-01-01T06:23:59.305Z,2.37
2023-01-01T06:26:32.578Z,1.70
2023-01-01T06:29:02.794Z,2.13
2023-01-01T06:31:32.999Z,1.80
2023-01-01T06:34:04.760Z,1.60
2023-01-01T06:36:32.484Z,1.40
2023-01-01T06:39:00.490Z,1.80
2023-01-01T06:41:29.492Z,2.20
2023-01-01T06:43:58.190Z,1.43
2023-01-01T06:46:33.888Z,1.67
2023-01-01T06:49:21.792Z,2.10
2023-01-01T06:51:49.424Z,1.93
2023-01-01T06:54:17.082Z,2.23
2023-01-01T06:56:44.812Z,1.70
2023-01-01T06:59:12.556Z,2.50
2023-01-01T07:01:44.310Z,2.03
2023-01-01T07:04:15.145Z,1.83
2023-01-01T07:06:43.530Z,2.53
2023-01-01T07:09:11.166Z,2.10
2023-01-01T07:11:38.841Z,2.77
2023-01-01T07:14:06.462Z,2.10
2023-01-01T07:16:34.248Z,2.33
2023-01-01T07:19:02.035Z,2.30
2023-01-01T07:21:34.770Z,2.17
2023-01-01T07:24:04.905Z,2.53
2023-01-01T07:26:34.183Z,1.90
2023-01-01T07:29:07.361Z,2.73
2023-01-01T07:31:40.815Z,2.03
2023-01-01T07:34:11.286Z,2.27
2023-01-01T07:36:38.924Z,2.07
2023-01-01T07:39:06.888Z,2.73
2023-01-01T07:41:34.539Z,2.30
2023-01-01T07:44:02.241Z,3.03
2023-01-01T07:46:30.258Z,1.73
2023-01-01T07:48:59.321Z,1.83
2023-01-01T07:51:27.720Z,2.33
2023-01-01T07:53:58.156Z,1.83
2023-01-01T07:56:28.536Z,2.70
2023-01-01T07:58:56.226Z,2.37
2023-01-01T08:01:23.957Z,2.73
2023-01-01T08:03:53.734Z,1.90
2023-01-01T08:06:22.486Z,1.43
2023-01-01T08:08:50.352Z,2.30
2023-01-01T08:11:18.005Z,2.90
2023-01-01T08:13:45.680Z,2.80
2023-01-01T08:16:13.505Z,2.60
2023-01-01T08:18:41.181Z,2.50
2023-01-01T08:21:09.449Z,2.20
2023-01-01T08:23:37.073Z,2.50
2023-01-01T08:26:04.950Z,2.50
2023-01-01T08:28:32.702Z,2.43
2023-01-01T08:31:00.497Z,1.97
2023-01-01T08:33:30.120Z,1.90
2023-01-01T08:35:57.821Z,2.37
2023-01-01T08:38:25.581Z,1.90
2023-01-01T08:40:53.603Z,2.10
2023-01-01T08:43:21.372Z,1.40
2023-01-01T08:45:50.785Z,1.77
2023-01-01T08:48:25.624Z,2.43
2023-01-01T08:51:00.212Z,2.13
2023-01-01T08:53:29.674Z,2.13
2023-01-01T08:56:03.779Z,1.50
2023-01-01T08:58:32.607Z,2.27
2023-01-01T09:03:31.118Z,1.00
2023-01-01T09:05:58.921Z,1.93
2023-01-01T09:08:27.115Z,2.00
2023-01-01T09:10:58.775Z,1.43
2023-01-01T09:13:26.482Z,1.63
2023-01-01T09:15:54.374Z,1.50
2023-01-01T09:18:22.140Z,1.33
2023-01-01T09:20:50.036Z,1.80
2023-01-01T09:23:17.676Z,1.77
2023-01-01T09:25:45.328Z,1.20
2023-01-01T09:28:14.802Z,1.77
2023-01-01T09:30:42.551Z,1.90
2023-01-01T09:33:10.331Z,0.80
2023-01-01T09:35:38.865Z,1.60
2023-01-01T09:38:06.592Z,1.63
2023-01-01T09:41:03.340Z,1.43
2023-01-01T09:43:48.968Z,0.90
2023-01-01T09:46:16.836Z,1.37
2023-01-01T09:49:08.285Z,1.37
2023-01-01T09:51:45.238Z,1.20
2023-01-01T09:54:30.542Z,1.27
2023-01-01T09:57:00.914Z,1.13
2023-01-01T09:59:29.058Z,1.53
2023-01-01T10:02:02.882Z,1.40
2023-01-01T10:04:49.699Z,0.90
2023-01-01T10:07:38.617Z,1.30
2023-01-01T10:10:41.719Z,1.17
2023-01-01T10:13:19.003Z,1.07
2023-01-01T10:15:57.270Z,3.67
2023-01-01T10:18:29.963Z,1.60
2023-01-01T10:21:18.026Z,1.17
2023-01-01T10:23:52.221Z,1.67
2023-01-01T10:26:22.218Z,1.83
2023-01-01T10:29:01.658Z,1.40
2023-01-01T10:31:38.011Z,1.33
2023-01-01T10:34:17.222Z,1.30
2023-01-01T10:36:45.568Z,1.50
2023-01-01T10:39:20.316Z,1.60
2023-01-01T10:41:49.213Z,1.63
2023-01-01T10:44:20.851Z,0.60
2023-01-01T10:46:57.469Z,1.67
2023-01-01T10:49:25.393Z,1.43
2023-01-01T10:51:55.638Z,1.17
2023-01-01T10:54:41.699Z,1.10
2023-01-01T10:57:21.743Z,1.27
2023-01-01T10:59:54.193Z,1.77
2023-01-01T11:02:27.503Z,1.60
2023-01-01T11:05:22.008Z,1.63
2023-01-01T11:07:50.291Z,1.10
2023-01-01T11:10:23.963Z,1.00
2023-01-01T11:13:08.890Z,1.07
2023-01-01T11:15:44.223Z,1.20
2023-01-01T11:18:21.917Z,0.80
2023-01-01T11:20:55.177Z,1.37
2023-01-01T11:23:40.762Z,1.07
2023-01-01T11:26:28.860Z,1.30
2023-01-01T11:29:26.279Z,0.90
2023-01-01T11:31:54.360Z,0.90
2023-01-01T11:34:35.514Z,1.20
2023-01-01T11:37:15.411Z,0.55
2023-01-01T11:39:45.990Z,1.07
2023-01-01T11:42:26.417Z,1.63
2023-01-01T11:44:58.328Z,1.10
2023-01-01T11:47:33.065Z,0.97
2023-01-01T11:50:09.012Z,1.03
2023-01-01T11:52:42.777Z,1.20
2023-01-01T11:55:42.123Z,1.10
2023-01-01T11:58:20.024Z,0.63
2023-01-01T12:00:52.069Z,0.80
2023-01-01T12:03:34.292Z,0.67
2023-01-01T12:06:17.314Z,1.00
2023-01-01T12:08:57.051Z,0.80
2023-01-01T12:11:32.985Z,1.40
2023-01-01T12:14:20.348Z,1.03
2023-01-01T12:17:14.020Z,1.00
2023-01-01T12:19:56.850Z,1.20
2023-01-01T12:22:26.738Z,0.87
2023-01-01T12:24:55.377Z,0.80
2023-01-01T12:27:53.683Z,1.00
2023-01-01T12:30:25.277Z,1.27
2023-01-01T12:35:48.104Z,1.13
2023-01-01T12:38:37.929Z,0.50
2023-01-01T12:41:24.195Z,0.97
2023-01-01T12:44:31.624Z,0.73
2023-01-01T12:47:17.978Z,1.03
2023-01-01T12:50:01.457Z,0.93
2023-01-01T12:52:58.449Z,1.00
2023-01-01T12:55:42.822Z,0.53
2023-01-01T12:58:18.873Z,1.10
2023-01-01T13:00:56.155Z,0.83
2023-01-01T13:03:29.888Z,0.67
2023-01-01T13:05:59.984Z,0.70
2023-01-01T13:08:27.674Z,0.53
2023-01-01T13:10:59.328Z,0.83
2023-01-01T13:13:27.447Z,1.20
2023-01-01T13:15:57.544Z,0.83
2023-01-01T13:18:28.615Z,0.60
2023-01-01T13:20:59.491Z,1.05
2023-01-01T13:23:34.718Z,0.70
2023-01-01T13:26:20.951Z,0.70
2023-01-01T13:28:51.427Z,0.73
2023-01-01T13:31:19.644Z,0.80
2023-01-01T13:34:26.166Z,0.63
2023-01-01T13:37:14.032Z,0.50
2023-01-01T13:39:55.402Z,0.60
2023-01-01T13:42:52.333Z,0.60
2023-01-01T13:46:09.949Z,1.03
2023-01-01T13:48:27.416Z,0.50
2023-01-01T13:52:03.076Z,0.70
2023-01-01T13:54:26.841Z,0.87
2023-01-01T13:56:59.573Z,0.52
2023-01-01T13:59:39.959Z,2.10
2023-01-01T14:02:23.599Z,1.63
2023-01-01T14:05:03.104Z,1.30
2023-01-01T14:07:52.852Z,1.43
2023-01-01T14:10:29.537Z,1.00
2023-01-01T14:13:08.512Z,1.40
2023-01-01T14:15:39.695Z,0.90
2023-01-01T14:18:18.720Z,0.77
2023-01-01T14:20:49.624Z,0.80
2023-01-01T14:23:32.452Z,0.80
2023-01-01T14:26:03.519Z,1.37
2023-01-01T14:28:33.923Z,1.48
2023-01-01T14:31:11.537Z,1.97
2023-01-01T14:33:39.925Z,1.00
2023-01-01T14:36:24.145Z,1.23
2023-01-01T14:38:54.051Z,1.03
2023-01-01T14:41:43.755Z,1.03
2023-01-01T14:44:13.221Z,1.13
2023-01-01T14:46:42.495Z,1.20
2023-01-01T14:49:13.472Z,0.70
2023-01-01T14:51:45.273Z,1.30
2023-01-01T14:56:48.466Z,0.50
2023-01-01T14:59:21.998Z,1.10
2023-01-01T15:02:01.144Z,0.93
2023-01-01T15:04:29.857Z,1.30
2023-01-01T15:06:59.417Z,1.10
2023-01-01T15:09:28.923Z,1.20
2023-01-01T15:11:57.990Z,1.10
2023-01-01T15:14:40.181Z,0.73
2023-01-01T15:17:12.449Z,1.00
2023-01-01T15:19:42.621Z,1.03
2023-01-01T15:22:27.856Z,0.93
2023-01-01T15:24:56.052Z,1.27
2023-01-01T15:27:28.549Z,0.90
2023-01-01T15:29:57.660Z,1.47
2023-01-01T15:32:32.132Z,4.20
2023-01-01T15:35:02.095Z,5.03
2023-01-01T15:37:33.810Z,3.33
2023-01-01T15:40:27.955Z,3.38
2023-01-01T15:42:55.547Z,3.27
2023-01-01T15:46:15.864Z,2.30
2023-01-01T15:48:54.192Z,3.77
2023-01-01T15:51:27.280Z,2.73
2023-01-01T15:54:04.968Z,2.57
2023-01-01T15:56:35.042Z,2.30
2023-01-01T15:59:09.622Z,2.00
2023-01-01T16:01:40.675Z,3.30
2023-01-01T16:04:12.153Z,2.28
2023-01-01T16:06:51.347Z,1.73
2023-01-01T16:09:20.507Z,1.67
2023-01-01T16:11:53.835Z,1.10
2023-01-01T16:14:21.723Z,1.53
2023-01-01T16:16:57.387Z,1.07
2023-01-01T16:19:26.018Z,1.70
2023-01-01T16:21:54.085Z,1.67
2023-01-01T16:24:22.127Z,1.90
2023-01-01T16:26:49.928Z,1.80
2023-01-01T16:29:18.182Z,1.00
2023-01-01T16:31:47.445Z,1.47
2023-01-01T16:34:15.789Z,1.37
2023-01-01T16:36:45.135Z,1.83
2023-01-01T16:39:13.198Z,1.70
2023-01-01T16:41:42.663Z,1.63
2023-01-01T16:44:14.967Z,2.00
2023-01-01T16:46:43.326Z,1.20
2023-01-01T16:49:11.100Z,1.20
2023-01-01T16:51:43.400Z,1.97
2023-01-01T16:54:11.667Z,1.37
2023-01-01T16:56:39.349Z,0.93
2023-01-01T16:59:07.033Z,2.03
2023-01-01T17:01:34.726Z,1.47
2023-01-01T17:04:02.531Z,1.03
2023-01-01T17:06:30.179Z,2.00
2023-01-01T17:08:59.570Z,2.27
2023-01-01T17:11:27.575Z,1.53
2023-01-01T17:13:55.235Z,1.87
2023-01-01T17:16:27.963Z,1.70
2023-01-01T17:19:16.182Z,2.37
2023-01-01T17:21:48.072Z,1.77
2023-01-01T17:24:20.939Z,2.40
2023-01-01T17:26:52.999Z,1.97
2023-01-01T17:29:22.530Z,2.07
2023-01-01T17:31:50.209Z,3.27
2023-01-01T17:34:18.458Z,2.73
2023-01-01T17:36:46.925Z,2.60
2023-01-01T17:39:16.084Z,2.73
2023-01-01T17:41:45.376Z,2.20
2023-01-01T17:44:13.036Z,2.40
2023-01-01T17:46:40.784Z,1.77
2023-01-01T17:49:09.172Z,2.73
2023-01-01T17:51:37.251Z,2.50
2023-01-01T17:54:07.206Z,2.47
2023-01-01T17:56:35.064Z,2.40
2023-01-01T17:59:02.772Z,2.37
2023-01-01T18:01:33.102Z,2.20
2023-01-01T18:04:06.566Z,2.00
2023-01-01T18:06:41.302Z,3.07
2023-01-01T18:09:12.869Z,2.43
2023-01-01T18:11:41.499Z,2.05
2023-01-01T18:14:09.344Z,2.10
2023-01-01T18:16:39.673Z,1.83
2023-01-01T18:19:08.211Z,2.20
2023-01-01T18:21:36.453Z,2.03
2023-01-01T18:24:04.165Z,2.43
2023-01-01T18:26:32.296Z,1.70
2023-01-01T18:29:02.482Z,1.97
2023-01-01T18:31:33.327Z,1.63
2023-01-01T18:34:04.217Z,2.45
2023-01-01T18:36:34.273Z,2.25
2023-01-01T18:39:15.905Z,2.57
2023-01-01T18:41:49.361Z,1.73
2023-01-01T18:44:24.780Z,2.30
2023-01-01T18:47:07.673Z,2.17
2023-01-01T18:49:37.813Z,2.07
2023-01-01T18:52:08.499Z,2.53
2023-01-01T18:54:36.742Z,2.20
2023-01-01T18:57:11.232Z,1.90
2023-01-01T18:59:39.320Z,1.83
2023-01-01T19:02:22.626Z,1.90
2023-01-01T19:04:50.802Z,2.10
2023-01-01T19:07:18.509Z,1.83
2023-01-01T19:09:46.117Z,2.13
2023-01-01T19:12:19.523Z,3.07
2023-01-01T19:14:49.331Z,2.07
2023-01-01T19:17:23.197Z,2.73
2023-01-01T19:19:52.568Z,2.23
2023-01-01T19:22:31.847Z,2.57
2023-01-01T19:25:03.841Z,2.17
2023-01-01T19:27:34.148Z,1.65
2023-01-01T19:30:03.077Z,1.87
2023-01-01T19:32:30.701Z,1.93
2023-01-01T19:34:58.380Z,1.53
2023-01-01T19:37:26.020Z,1.83
2023-01-01T19:39:53.681Z,2.23
2023-01-01T19:42:21.343Z,2.40
2023-01-01T19:44:48.966Z,1.50
2023-01-01T19:47:16.618Z,1.57
2023-01-01T19:49:44.223Z,2.27
2023-01-01T19:52:11.862Z,1.70
2023-01-01T19:54:39.544Z,1.60
2023-01-01T19:57:07.167Z,1.67
2023-01-01T19:59:37.164Z,2.00
2023-01-01T20:04:54.263Z,1.80
2023-01-01T20:07:21.931Z,1.80
2023-01-01T20:09:49.642Z,1.83
2023-01-01T20:12:17.332Z,1.60
2023-01-01T20:14:44.971Z,1.70
2023-01-01T20:17:14.733Z,1.83
2023-01-01T20:19:46.843Z,2.10
2023-01-01T20:22:14.980Z,1.77
2023-01-01T20:24:42.816Z,1.70
2023-01-01T20:27:11.510Z,1.40
2023-01-01T20:29:39.840Z,1.37
2023-01-01T20:32:12.430Z,1.70
2023-01-01T20:34:41.316Z,1.50
2023-01-01T20:37:27.370Z,1.23
2023-01-01T20:39:55.352Z,1.73
2023-01-01T20:42:23.085Z,2.10
2023-01-01T20:44:50.822Z,1.77
2023-01-01T20:47:18.531Z,1.23
2023-01-01T20:49:46.298Z,1.63
2023-01-01T20:52:15.519Z,1.00
2023-01-01T20:54:43.201Z,1.50
2023-01-01T20:57:10.911Z,1.03
2023-01-01T20:59:38.987Z,1.33
2023-01-01T21:02:09.506Z,1.00
2023-01-01T21:04:39.571Z,1.33
2023-01-01T21:07:12.797Z,1.67
2023-01-01T21:09:41.768Z,1.53
2023-01-01T21:12:10.423Z,1.50
2023-01-01T21:14:38.128Z,2.00
2023-01-01T21:17:23.736Z,1.77
2023-01-01T21:19:57.457Z,1.30
2023-01-01T21:22:25.376Z,1.77
2023-01-01T21:24:55.508Z,1.07
2023-01-01T21:27:34.547Z,1.13
2023-01-01T21:30:02.344Z,1.33
2023-01-01T21:32:41.115Z,1.10
2023-01-01T21:35:24.407Z,1.43
2023-01-01T21:37:59.183Z,1.30
2023-01-01T21:40:32.629Z,0.70
2023-01-01T21:43:25.449Z,1.10
2023-01-01T21:45:53.585Z,1.47
2023-01-01T21:48:45.175Z,1.53
2023-01-01T21:51:27.745Z,1.15
2023-01-01T21:54:03.584Z,1.10
2023-01-01T21:56:37.487Z,0.97
2023-01-01T21:59:28.213Z,1.93
2023-01-01T22:02:29.127Z,0.90
2023-01-01T22:04:56.991Z,1.50
2023-01-01T22:10:25.097Z,1.33
2023-01-01T22:13:00.150Z,1.27
2023-01-01T22:15:27.890Z,1.77
2023-01-01T22:18:04.915Z,1.57
2023-01-01T22:20:35.729Z,1.93
2023-01-01T22:23:05.624Z,1.10
2023-01-01T22:25:33.903Z,0.77
2023-01-01T22:28:18.580Z,2.13
2023-01-01T22:30:46.513Z,1.40
2023-01-01T22:33:27.812Z,1.67
2023-01-01T22:35:57.890Z,1.35
2023-01-01T22:38:33.188Z,1.90
2023-01-01T22:41:01.550Z,0.90
2023-01-01T22:43:35.709Z,1.20
2023-01-01T22:46:15.636Z,1.40
2023-01-01T22:48:43.325Z,1.53
2023-01-01T22:51:19.433Z,1.33
2023-01-01T22:53:47.153Z,1.67
2023-01-01T22:56:17.587Z,1.83
2023-01-01T22:58:45.264Z,1.93
2023-01-01T23:01:12.954Z,1.10
2023-01-01T23:03:40.761Z,1.70
2023-01-01T23:06:08.572Z,1.17
2023-01-01T23:08:36.316Z,1.47
2023-01-01T23:11:04.203Z,1.67
2023-01-01T23:13:49.260Z,1.67
2023-01-01T23:16:17.062Z,1.23
2023-01-01T23:18:44.996Z,1.63
2023-01-01T23:21:22.734Z,1.00
2023-01-01T23:23:57.163Z,1.02
2023-01-01T23:26:25.820Z,1.13
2023-01-01T23:28:55.765Z,1.37
2023-01-01T23:31:26.238Z,2.07
2023-01-01T23:33:56.023Z,1.67
2023-01-01T23:36:25.791Z,1.30
2023-01-01T23:38:53.469Z,1.30
2023-01-01T23:41:22.441Z,1.30
2023-01-01T23:43:50.913Z,1.53
2023-01-01T23:46:19.310Z,1.60
2023-01-01T23:48:48.856Z,1.13
2023-01-01T23:51:18.088Z,1.10
2023-01-01T23:53:46.347Z,2.07
2023-01-01T23:56:13.959Z,1.40
2023-01-01T23:58:41.625Z,1.17
